Time;durP1;ratioP1;P1;durP2;ratioP2;P2;SDS_P1;SDS_P2;PMS_P1;PMS_P2;Temp;Humidity;BMP_temperature;BMP_pressure;BME280_temperature;BME280_humidity;BME280_pressure;Samples;Min_cycle;Max_cycle;Signal;HPM_P1;HPM_P2
2022/12/10 00:01:32;;;;;;;31.08;13.23;;;-1.20;99.90;;;;;;5052371;28;20478;-48
2022/12/10 00:03:58;;;;;;;25.70;11.57;;;-1.20;99.90;;;;;;5052387;28;20039;-51
2022/12/10 00:06:29;;;;;;;29.00;11.45;;;-1.20;99.90;;;;;;5046935;28;20120;-48
2022/12/10 00:08:55;;;;;;;24.38;11.50;;;-1.20;99.90;;;;;;5036547;28;20090;-49
2022/12/10 00:11:22;;;;;;;25.73;11.82;;;-1.20;99.90;;;;;;5051676;28;20037;-46
2022/12/10 00:13:49;;;;;;;29.02;11.98;;;-1.20;99.90;;;;;;5052560;28;20474;-49
2022/12/10 00:16:18;;;;;;;27.75;12.35;;;-1.20;99.90;;;;;;5065235;28;20113;-48
2022/12/10 00:18:43;;;;;;;27.85;12.43;;;-1.20;99.90;;;;;;5055280;28;20090;-46
2022/12/10 00:21:12;;;;;;;24.85;11.98;;;-1.20;99.90;;;;;;5046828;28;20037;-50
2022/12/10 00:23:38;;;;;;;31.05;12.90;;;-1.20;99.90;;;;;;5063945;28;20133;-49
2022/12/10 00:26:06;;;;;;;28.75;12.68;;;-1.20;99.90;;;;;;5046609;28;20095;-49
2022/12/10 00:28:32;;;;;;;30.67;13.23;;;-1.20;99.90;;;;;;5057343;28;20037;-47
2022/12/10 00:31:06;;;;;;;26.40;11.95;;;-1.20;99.90;;;;;;5047733;28;20274;-46
2022/12/10 00:33:32;;;;;;;25.05;11.93;;;-1.20;99.90;;;;;;5042720;28;20413;-47
2022/12/10 00:36:03;;;;;;;30.33;11.77;;;-1.20;99.90;;;;;;5052353;28;20040;-46
2022/12/10 00:38:29;;;;;;;28.63;12.00;;;-1.20;99.90;;;;;;5046491;28;20029;-52
2022/12/10 00:40:54;;;;;;;29.13;12.68;;;-1.20;99.90;;;;;;5051533;28;20689;-52
2022/12/10 00:43:19;;;;;;;26.45;11.73;;;-1.20;99.90;;;;;;5051545;28;20039;-46
2022/12/10 00:45:45;;;;;;;28.05;13.10;;;-1.20;99.90;;;;;;5058391;28;20104;-49
2022/12/10 00:48:11;;;;;;;22.08;11.10;;;-1.10;99.90;;;;;;5058456;28;20041;-47
2022/12/10 00:50:36;;;;;;;30.02;12.23;;;-1.10;99.90;;;;;;5062998;28;20025;-48
2022/12/10 00:53:01;;;;;;;25.40;11.70;;;-1.10;99.90;;;;;;5065871;28;20055;-46
2022/12/10 00:55:27;;;;;;;24.25;10.70;;;-1.10;99.90;;;;;;5048332;28;20028;-48
2022/12/10 00:57:52;;;;;;;23.80;10.88;;;-1.10;99.90;;;;;;5059105;28;20797;-48
2022/12/10 01:00:18;;;;;;;24.52;11.48;;;-1.10;99.90;;;;;;5063537;28;20032;-49
2022/12/10 01:02:43;;;;;;;23.83;11.40;;;-1.00;99.90;;;;;;5066174;28;20095;-51
2022/12/10 01:05:09;;;;;;;29.73;12.65;;;-1.00;99.90;;;;;;5046268;28;20035;-46
2022/12/10 01:07:34;;;;;;;26.20;11.77;;;-1.10;99.90;;;;;;5045987;28;20178;-52
2022/12/10 01:10:00;;;;;;;27.38;12.40;;;-1.10;99.90;;;;;;5065294;28;20036;-53
2022/12/10 01:12:25;;;;;;;24.88;11.48;;;-1.10;99.90;;;;;;5065747;28;20535;-45
2022/12/10 01:14:51;;;;;;;27.73;12.20;;;-1.10;99.90;;;;;;5046338;28;20037;-44
2022/12/10 01:17:16;;;;;;;28.23;11.18;;;-1.00;99.90;;;;;;5043988;28;20053;-44
2022/12/10 01:19:42;;;;;;;24.95;11.45;;;-1.00;99.90;;;;;;5065034;28;20028;-44
2022/12/10 01:22:07;;;;;;;21.40;9.65;;;-1.00;99.90;;;;;;5044601;28;20118;-47
2022/12/10 01:24:33;;;;;;;23.35;10.43;;;-0.90;99.90;;;;;;5068097;28;20031;-48
2022/12/10 01:26:58;;;;;;;21.98;9.90;;;-0.90;99.90;;;;;;5048251;28;20079;-49
2022/12/10 01:29:24;;;;;;;25.55;10.88;;;-0.90;99.90;;;;;;5068421;28;20115;-47
2022/12/10 01:31:51;;;;;;;26.08;11.40;;;-0.90;99.90;;;;;;5048062;28;20116;-44
2022/12/10 01:34:17;;;;;;;23.55;11.43;;;-0.80;99.90;;;;;;5063320;28;20489;-48
2022/12/10 01:36:44;;;;;;;27.02;11.05;;;-0.90;99.90;;;;;;5052641;28;20036;-44
2022/12/10 01:39:13;;;;;;;30.65;12.48;;;-0.80;99.90;;;;;;5068862;28;20041;-48
2022/12/10 01:41:49;;;;;;;23.67;10.90;;;-0.80;99.90;;;;;;5047251;28;20131;-47
2022/12/10 01:44:15;;;;;;;24.27;11.23;;;-0.80;99.90;;;;;;5040448;28;20033;-47
2022/12/10 01:46:46;;;;;;;23.95;10.88;;;-0.80;99.90;;;;;;5052706;28;20408;-44
2022/12/10 01:49:18;;;;;;;26.02;11.18;;;-0.80;99.90;;;;;;5029163;28;20786;-47
2022/12/10 01:51:45;;;;;;;22.17;9.77;;;-0.80;99.90;;;;;;5049587;28;20032;-46
2022/12/10 01:54:15;;;;;;;25.88;11.45;;;-0.80;99.90;;;;;;5053225;28;20131;-47
2022/12/10 01:56:46;;;;;;;25.38;12.07;;;-0.80;99.90;;;;;;5066495;28;20035;-46
2022/12/10 01:59:13;;;;;;;27.30;12.00;;;-0.80;99.90;;;;;;5047000;28;20029;-49
2022/12/10 02:01:53;;;;;;;29.58;13.40;;;-0.80;99.90;;;;;;5066418;28;20739;-44
2022/12/10 02:04:28;;;;;;;26.02;13.70;;;-0.80;99.90;;;;;;5040828;28;20025;-45
2022/12/10 02:06:56;;;;;;;24.02;12.50;;;-0.80;99.90;;;;;;5036568;28;20041;-45
2022/12/10 02:09:46;;;;;;;27.15;13.23;;;-0.70;99.90;;;;;;5041067;28;20041;-44
2022/12/10 02:12:23;;;;;;;26.10;11.43;;;-0.70;99.90;;;;;;5067085;28;20052;-44
2022/12/10 02:14:56;;;;;;;22.73;11.38;;;-0.70;99.90;;;;;;5045233;28;20044;-43
2022/12/10 02:17:40;;;;;;;24.35;11.82;;;-0.70;99.90;;;;;;5067809;28;20032;-44
2022/12/10 02:20:12;;;;;;;30.60;13.50;;;-0.70;99.90;;;;;;5042465;28;20383;-43
2022/12/10 02:22:44;;;;;;;25.30;10.98;;;-0.70;99.90;;;;;;5035837;28;20405;-43
2022/12/10 02:25:12;;;;;;;30.48;12.90;;;-0.70;99.90;;;;;;5068241;28;20032;-43
2022/12/10 02:28:02;;;;;;;30.52;14.80;;;-0.70;99.90;;;;;;5054572;28;20095;-46
2022/12/10 02:30:31;;;;;;;31.83;13.52;;;-0.70;99.90;;;;;;5059562;28;20032;-49
2022/12/10 02:32:58;;;;;;;29.48;12.77;;;-0.70;99.90;;;;;;5066351;28;20564;-46
2022/12/10 02:35:27;;;;;;;28.55;13.25;;;-0.60;99.90;;;;;;5049414;28;20086;-46
2022/12/10 02:37:58;;;;;;;28.65;12.63;;;-0.70;99.90;;;;;;5052952;28;20419;-44
2022/12/10 02:40:27;;;;;;;26.65;13.13;;;-0.60;99.90;;;;;;5058475;28;20040;-43
2022/12/10 02:42:53;;;;;;;26.05;11.70;;;-0.70;99.90;;;;;;5053150;28;20043;-45
2022/12/10 02:45:21;;;;;;;24.05;12.35;;;-0.70;99.90;;;;;;5068129;28;20040;-46
2022/12/10 02:47:48;;;;;;;24.90;11.50;;;-0.70;99.90;;;;;;5047584;28;20479;-50
2022/12/10 02:50:15;;;;;;;24.77;11.77;;;-0.70;99.90;;;;;;5060901;28;20481;-46
2022/12/10 02:52:41;;;;;;;24.50;11.75;;;-0.70;99.90;;;;;;5058517;28;20033;-46
2022/12/10 02:55:11;;;;;;;27.88;12.40;;;-0.70;99.90;;;;;;5069356;28;20048;-43
2022/12/10 02:57:50;;;;;;;27.45;12.20;;;-0.80;99.90;;;;;;5047803;28;20562;-44
2022/12/10 03:00:22;;;;;;;26.67;13.25;;;-0.70;99.90;;;;;;5050170;28;20033;-48
2022/12/10 03:03:00;;;;;;;24.42;11.95;;;-0.70;99.90;;;;;;5067997;28;20127;-44
2022/12/10 03:05:48;;;;;;;25.63;11.63;;;-0.80;99.90;;;;;;5056740;28;20375;-45
2022/12/10 03:08:23;;;;;;;30.10;13.95;;;-0.80;99.90;;;;;;5038339;28;20044;-44
2022/12/10 03:11:10;;;;;;;30.35;14.38;;;-0.80;99.90;;;;;;5070005;28;20510;-43
2022/12/10 03:13:43;;;;;;;28.08;14.10;;;-0.90;99.90;;;;;;5056167;28;20021;-50
2022/12/10 03:16:09;;;;;;;27.75;14.07;;;-1.00;99.90;;;;;;5029817;28;20042;-45
2022/12/10 03:18:37;;;;;;;30.30;13.60;;;-1.00;99.90;;;;;;5066961;28;20036;-51
2022/12/10 03:21:05;;;;;;;29.85;14.27;;;-1.00;99.90;;;;;;5049889;28;20040;-44
2022/12/10 03:23:34;;;;;;;32.47;14.02;;;-1.10;99.90;;;;;;5067328;28;20028;-44
2022/12/10 03:26:01;;;;;;;37.75;16.15;;;-1.10;99.90;;;;;;5069784;28;20020;-48
2022/12/10 03:28:30;;;;;;;31.02;14.80;;;-1.20;99.90;;;;;;5055272;28;20025;-46
2022/12/10 03:30:57;;;;;;;34.78;15.82;;;-1.30;99.90;;;;;;5069588;28;20025;-43
2022/12/10 03:33:23;;;;;;;34.60;14.18;;;-1.40;99.90;;;;;;5054382;28;20035;-45
2022/12/10 03:35:49;;;;;;;27.13;13.07;;;-1.40;99.90;;;;;;5067430;28;20024;-48
2022/12/10 03:38:15;;;;;;;27.45;12.00;;;-1.50;99.90;;;;;;5069152;28;20381;-44
2022/12/10 03:40:42;;;;;;;30.48;13.95;;;-1.50;99.90;;;;;;5053427;28;20043;-45
2022/12/10 03:43:07;;;;;;;29.20;13.38;;;-1.60;99.90;;;;;;5069404;28;20108;-44
2022/12/10 03:45:32;;;;;;;29.85;13.57;;;-1.60;99.90;;;;;;5051867;28;20429;-45
2022/12/10 03:47:58;;;;;;;32.40;13.75;;;-1.70;99.90;;;;;;5069349;28;20028;-49
2022/12/10 03:50:23;;;;;;;37.67;15.15;;;-1.80;99.90;;;;;;5051092;28;20036;-48
2022/12/10 03:52:49;;;;;;;32.92;15.05;;;-1.80;99.90;;;;;;5069188;28;20071;-46
2022/12/10 03:55:14;;;;;;;38.65;14.13;;;-1.90;99.90;;;;;;5049530;28;20033;-47
2022/12/10 03:57:40;;;;;;;31.25;13.27;;;-1.90;99.90;;;;;;5069205;28;20105;-47
2022/12/10 04:00:07;;;;;;;28.50;11.75;;;-2.00;99.90;;;;;;5048319;28;20044;-45
2022/12/10 04:02:32;;;;;;;23.60;9.55;;;-2.00;99.90;;;;;;5069077;28;20024;-46
2022/12/10 04:04:58;;;;;;;27.23;11.10;;;-2.00;99.90;;;;;;5046993;28;20077;-48
2022/12/10 04:07:23;;;;;;;23.50;11.07;;;-2.00;99.90;;;;;;5055871;28;20610;-46
2022/12/10 04:09:49;;;;;;;24.63;11.68;;;-1.90;99.90;;;;;;5049629;28;20167;-47
2022/12/10 04:12:14;;;;;;;24.20;10.82;;;-1.90;99.90;;;;;;5066158;28;20174;-44
2022/12/10 04:17:24;;;;;;;28.90;10.95;;;-1.90;99.90;;;;;;5048250;28;20046;-49
2022/12/10 04:19:49;;;;;;;21.75;9.18;;;-1.90;99.90;;;;;;5049581;28;20401;-46
2022/12/10 04:27:43;;;;;;;21.50;8.98;;;-1.90;99.90;;;;;;5053746;28;20047;-47
2022/12/10 04:30:12;;;;;;;26.05;10.75;;;-1.80;99.90;;;;;;5049348;28;20045;-43
2022/12/10 04:32:37;;;;;;;27.10;9.80;;;-1.80;99.90;;;;;;5054306;28;20025;-45
2022/12/10 04:35:04;;;;;;;26.02;11.38;;;-1.70;99.90;;;;;;5066168;28;20418;-48
2022/12/10 04:37:29;;;;;;;25.25;11.90;;;-1.70;99.90;;;;;;5068673;28;20116;-44
2022/12/10 04:39:55;;;;;;;27.50;11.45;;;-1.70;99.90;;;;;;5049339;28;20111;-45
2022/12/10 04:42:22;;;;;;;25.75;12.07;;;-1.70;99.90;;;;;;5065856;28;20045;-45
2022/12/10 04:44:48;;;;;;;25.73;10.65;;;-1.60;99.90;;;;;;5048997;28;20065;-46
2022/12/10 04:47:14;;;;;;;23.65;10.48;;;-1.60;99.90;;;;;;5047844;28;20033;-47
2022/12/10 04:49:40;;;;;;;27.80;11.70;;;-1.60;99.90;;;;;;5067921;28;20024;-45
2022/12/10 04:52:07;;;;;;;23.08;10.48;;;-1.50;99.90;;;;;;5047428;28;20029;-43
2022/12/10 04:54:33;;;;;;;22.67;10.20;;;-1.50;99.90;;;;;;5067922;28;20043;-43
2022/12/10 04:56:59;;;;;;;25.58;11.55;;;-1.50;99.90;;;;;;5047909;28;20503;-45
2022/12/10 04:59:24;;;;;;;23.65;11.85;;;-1.50;99.90;;;;;;5072007;28;20036;-45
2022/12/10 05:01:50;;;;;;;20.77;11.00;;;-1.50;99.90;;;;;;5051340;28;20041;-44
2022/12/10 05:04:17;;;;;;;19.23;9.60;;;-1.40;99.90;;;;;;5071940;28;20117;-46
2022/12/10 05:06:44;;;;;;;20.63;10.07;;;-1.50;99.90;;;;;;5044371;28;20075;-45
2022/12/10 05:09:12;;;;;;;20.02;10.00;;;-1.40;99.90;;;;;;5071984;28;20035;-48
2022/12/10 05:11:38;;;;;;;17.55;8.65;;;-1.40;99.90;;;;;;5050861;28;20025;-47
2022/12/10 05:14:04;;;;;;;21.73;9.85;;;-1.40;99.90;;;;;;5071579;28;20024;-45
2022/12/10 05:16:32;;;;;;;25.85;10.40;;;-1.40;99.90;;;;;;5051006;28;20125;-50
2022/12/10 05:18:58;;;;;;;20.83;9.20;;;-1.30;99.90;;;;;;5072160;28;20086;-50
2022/12/10 05:24:11;;;;;;;22.48;10.45;;;-1.30;99.90;;;;;;5032724;28;20037;-47
2022/12/10 05:26:36;;;;;;;19.85;10.07;;;-1.20;99.90;;;;;;5056133;28;20025;-46
2022/12/10 05:29:02;;;;;;;24.13;10.57;;;-1.30;99.90;;;;;;5072156;28;20027;-49
2022/12/10 05:31:29;;;;;;;22.65;10.57;;;-1.30;99.90;;;;;;5051906;28;20116;-51
2022/12/10 05:33:56;;;;;;;21.05;9.25;;;-1.20;99.90;;;;;;5072084;28;20064;-47
2022/12/10 05:36:25;;;;;;;22.27;9.15;;;-1.20;99.90;;;;;;5060650;28;20048;-46
2022/12/10 05:38:51;;;;;;;21.20;9.25;;;-1.10;99.90;;;;;;5052063;28;20524;-50
2022/12/10 05:41:19;;;;;;;22.05;9.85;;;-1.10;99.90;;;;;;5068874;28;20079;-52
2022/12/10 05:43:46;;;;;;;16.77;8.25;;;-1.10;99.90;;;;;;5051866;28;20029;-49
2022/12/10 05:46:15;;;;;;;21.30;8.75;;;-1.00;99.90;;;;;;5069311;28;20511;-46
2022/12/10 05:48:40;;;;;;;21.63;9.55;;;-1.00;99.90;;;;;;5051695;28;20047;-52
2022/12/10 05:51:09;;;;;;;21.73;9.57;;;-1.00;99.90;;;;;;5069002;28;20032;-49
2022/12/10 05:53:35;;;;;;;17.45;8.77;;;-1.00;99.90;;;;;;5052011;28;20138;-52
2022/12/10 05:56:06;;;;;;;22.23;10.10;;;-1.00;99.90;;;;;;5068909;28;20043;-46
2022/12/10 05:58:32;;;;;;;18.38;8.90;;;-0.90;99.90;;;;;;5051677;28;20114;-46
2022/12/10 06:00:58;;;;;;;18.40;8.60;;;-0.90;99.90;;;;;;5069031;28;20467;-46
2022/12/10 06:03:26;;;;;;;29.48;11.10;;;-0.90;99.90;;;;;;5071364;28;20056;-47
2022/12/10 06:05:51;;;;;;;21.60;9.60;;;-0.90;99.90;;;;;;5049404;28;20029;-52
2022/12/10 06:08:17;;;;;;;19.25;9.68;;;-0.80;99.90;;;;;;5071198;28;20035;-48
2022/12/10 06:10:42;;;;;;;21.73;10.02;;;-0.80;99.90;;;;;;5049463;28;20758;-46
2022/12/10 06:13:08;;;;;;;25.38;10.38;;;-0.80;99.90;;;;;;5051532;28;20029;-47
2022/12/10 06:15:34;;;;;;;26.80;10.70;;;-0.80;99.90;;;;;;5068499;28;20480;-53
2022/12/10 06:17:59;;;;;;;19.55;8.95;;;-0.70;99.90;;;;;;5071446;28;20025;-50
2022/12/10 06:20:25;;;;;;;21.65;9.80;;;-0.70;99.90;;;;;;5052452;28;20519;-49
2022/12/10 06:22:52;;;;;;;19.48;9.32;;;-0.70;99.90;;;;;;5071277;28;20031;-47
2022/12/10 06:25:18;;;;;;;17.90;8.57;;;-0.70;99.90;;;;;;5051241;28;20025;-47
2022/12/10 06:27:43;;;;;;;21.63;9.52;;;-0.60;99.90;;;;;;5071017;28;20385;-47
2022/12/10 06:30:10;;;;;;;20.55;9.70;;;-0.70;99.90;;;;;;5050220;28;20497;-52
2022/12/10 06:32:35;;;;;;;24.02;12.02;;;-0.70;99.90;;;;;;5070928;28;20078;-48
2022/12/10 06:35:01;;;;;;;27.35;12.52;;;-0.70;99.90;;;;;;5049574;28;20033;-46
2022/12/10 06:37:27;;;;;;;20.73;10.25;;;-0.70;99.90;;;;;;5071017;28;20036;-46
2022/12/10 06:39:53;;;;;;;20.30;10.82;;;-0.70;99.90;;;;;;5051143;28;20094;-46
2022/12/10 06:42:21;;;;;;;24.92;10.30;;;-0.70;99.90;;;;;;5049207;28;20053;-46
2022/12/10 06:44:47;;;;;;;21.98;10.43;;;-0.70;99.90;;;;;;5070009;28;20075;-50
2022/12/10 06:47:13;;;;;;;20.95;10.00;;;-0.60;99.90;;;;;;5049390;28;20068;-45
2022/12/10 06:49:39;;;;;;;26.17;10.68;;;-0.60;99.90;;;;;;5070144;28;20086;-47
2022/12/10 06:52:05;;;;;;;22.85;10.48;;;-0.60;99.90;;;;;;5049309;28;20044;-50
2022/12/10 06:54:31;;;;;;;22.05;10.50;;;-0.60;99.90;;;;;;5070034;28;20028;-45
2022/12/10 06:56:56;;;;;;;20.63;10.88;;;-0.60;99.90;;;;;;5049052;28;20029;-47
2022/12/10 06:59:22;;;;;;;24.55;11.23;;;-0.60;99.90;;;;;;5069680;28;20062;-47
2022/12/10 07:01:48;;;;;;;23.85;10.93;;;-0.50;99.90;;;;;;5047831;28;20040;-46
2022/12/10 07:04:14;;;;;;;18.15;9.07;;;-0.50;99.90;;;;;;5070549;28;20037;-51
2022/12/10 07:06:40;;;;;;;16.33;9.00;;;-0.50;99.90;;;;;;5044287;28;20029;-51
2022/12/10 07:09:05;;;;;;;24.95;12.60;;;-0.50;99.90;;;;;;5057834;28;20085;-50
2022/12/10 07:11:31;;;;;;;17.42;8.80;;;-0.50;99.90;;;;;;5050125;28;20025;-47
2022/12/10 07:13:58;;;;;;;21.92;10.52;;;-0.50;99.90;;;;;;5049719;28;20033;-51
2022/12/10 07:16:26;;;;;;;18.08;9.75;;;-0.50;99.90;;;;;;5048840;28;20127;-47
2022/12/10 07:18:54;;;;;;;20.13;10.38;;;-0.50;99.90;;;;;;5051406;28;20032;-51
2022/12/10 07:21:25;;;;;;;17.92;9.75;;;-0.50;99.90;;;;;;5058969;28;20032;-49
2022/12/10 07:23:53;;;;;;;18.77;9.27;;;-0.40;99.90;;;;;;5037261;28;20039;-47
2022/12/10 07:26:19;;;;;;;17.85;9.30;;;-0.40;99.90;;;;;;5063984;28;20655;-51
2022/12/10 07:28:45;;;;;;;18.40;9.65;;;-0.40;99.90;;;;;;5051110;28;20024;-52
2022/12/10 07:31:10;;;;;;;18.60;9.32;;;-0.40;99.90;;;;;;5068793;28;20064;-49
2022/12/10 07:33:36;;;;;;;22.80;10.65;;;-0.40;99.90;;;;;;5050300;28;20039;-48
2022/12/10 07:36:06;;;;;;;23.55;12.13;;;-0.40;99.90;;;;;;5066465;28;20041;-47
2022/12/10 07:38:32;;;;;;;24.10;12.27;;;-0.40;99.90;;;;;;5048990;28;20060;-51
2022/12/10 07:41:01;;;;;;;21.60;12.27;;;-0.40;99.90;;;;;;5065835;28;20520;-47
2022/12/10 07:43:41;;;;;;;20.60;11.48;;;-0.40;99.90;;;;;;5105937;27;20420;-47
2022/12/10 07:46:18;;;;;;;21.63;11.07;;;-0.40;99.90;;;;;;5126007;27;20059;-45
2022/12/10 07:48:46;;;;;;;20.10;10.85;;;-0.40;99.90;;;;;;5126429;27;20028;-47
2022/12/10 07:51:12;;;;;;;19.50;10.93;;;-0.30;99.90;;;;;;5104374;27;20032;-45
2022/12/10 07:53:38;;;;;;;22.33;11.25;;;-0.30;99.90;;;;;;5127375;27;20209;-46
2022/12/10 07:56:05;;;;;;;22.45;11.00;;;-0.30;99.90;;;;;;5107258;27;20480;-49
2022/12/10 07:58:31;;;;;;;20.48;10.20;;;-0.30;99.90;;;;;;5124692;27;20035;-48
2022/12/10 08:00:56;;;;;;;23.00;11.38;;;-0.20;99.90;;;;;;5106649;28;20040;-45
2022/12/10 08:03:23;;;;;;;21.38;10.10;;;-0.20;99.90;;;;;;5105416;28;20108;-45
2022/12/10 08:05:59;;;;;;;21.30;10.52;;;-0.10;99.90;;;;;;5111909;28;20027;-46
2022/12/10 08:08:25;;;;;;;;;;;-0.10;99.90;;;;;;5104138;28;20028;-47
2022/12/10 08:10:50;;;;;;;20.30;11.40;;;-0.10;99.90;;;;;;5124850;27;19914;-45
2022/12/10 08:13:16;;;;;;;23.35;11.30;;;-0.10;99.90;;;;;;5103435;28;20118;-51
2022/12/10 08:15:41;;;;;;;18.73;9.98;;;-0.20;99.90;;;;;;5126201;28;20448;-46
2022/12/10 08:18:06;;;;;;;22.17;10.88;;;-0.20;99.90;;;;;;5105073;28;20055;-46
2022/12/10 08:20:32;;;;;;;18.85;11.18;;;-0.10;99.90;;;;;;5126074;28;20036;-52
2022/12/10 08:22:57;;;;;;;18.13;9.65;;;-0.10;99.90;;;;;;5104806;28;20052;-45
2022/12/10 08:25:23;;;;;;;19.02;11.65;;;-0.10;99.90;;;;;;5125674;27;20399;-46
2022/12/10 08:27:48;;;;;;;18.17;10.65;;;-0.10;99.90;;;;;;5104825;28;20028;-51
2022/12/10 08:30:14;;;;;;;21.23;11.90;;;-0.10;99.90;;;;;;5125839;28;20041;-49
2022/12/10 08:32:39;;;;;;;19.40;10.15;;;-0.10;99.90;;;;;;5104842;28;20115;-51
2022/12/10 08:35:05;;;;;;;18.08;10.70;;;-0.10;99.90;;;;;;5125632;27;20556;-49
2022/12/10 08:37:30;;;;;;;20.60;10.50;;;0.00;99.90;;;;;;5104437;27;20028;-46
2022/12/10 08:39:56;;;;;;;21.13;10.73;;;0.00;99.90;;;;;;5125606;28;20039;-49
2022/12/10 08:42:21;;;;;;;18.67;11.05;;;0.00;99.90;;;;;;5114613;27;20078;-49
2022/12/10 08:44:47;;;;;;;16.30;9.73;;;0.00;99.90;;;;;;5106369;28;20032;-48
2022/12/10 08:47:12;;;;;;;17.67;9.77;;;0.00;99.90;;;;;;5116219;28;20073;-52
2022/12/10 08:49:38;;;;;;;19.63;11.00;;;0.10;99.90;;;;;;5105981;27;20144;-47
2022/12/10 08:52:03;;;;;;;19.30;10.48;;;0.00;99.90;;;;;;5123374;28;20036;-46
2022/12/10 08:54:29;;;;;;;18.10;10.10;;;0.10;99.90;;;;;;5094905;28;20524;-50
2022/12/10 08:56:54;;;;;;;21.33;11.07;;;0.10;99.90;;;;;;5109225;28;20411;-48
2022/12/10 08:59:20;;;;;;;21.05;11.02;;;0.10;99.90;;;;;;5112289;28;20011;-48
2022/12/10 09:01:45;;;;;;;22.00;9.40;;;0.10;99.90;;;;;;5095417;28;20039;-51
2022/12/10 09:04:12;;;;;;;20.83;11.07;;;0.20;99.90;;;;;;5112301;28;20024;-50
2022/12/10 09:06:38;;;;;;;18.73;10.38;;;0.20;99.90;;;;;;5089523;28;20109;-47
2022/12/10 09:09:04;;;;;;;16.92;9.20;;;0.20;99.90;;;;;;5112189;28;20040;-45
2022/12/10 09:11:32;;;;;;;18.52;9.77;;;0.30;99.90;;;;;;5093191;28;20076;-46
2022/12/10 09:13:58;;;;;;;19.15;10.68;;;0.30;99.90;;;;;;5111856;28;20027;-45
2022/12/10 09:16:33;;;;;;;17.60;10.52;;;0.40;99.90;;;;;;5091679;28;20495;-46
2022/12/10 09:19:00;;;;;;;18.40;11.07;;;0.30;99.90;;;;;;5112188;28;20482;-49
2022/12/10 09:21:25;;;;;;;22.58;11.00;;;0.30;99.90;;;;;;5092161;28;20089;-50
2022/12/10 09:23:51;;;;;;;16.90;11.00;;;0.30;99.90;;;;;;5111884;28;20099;-45
2022/12/10 09:26:18;;;;;;;17.17;10.52;;;0.30;99.90;;;;;;5090529;27;20481;-49
2022/12/10 09:28:45;;;;;;;19.60;11.05;;;0.30;99.90;;;;;;5111745;28;20020;-50
2022/12/10 09:31:12;;;;;;;18.67;11.20;;;0.30;99.90;;;;;;5089753;28;20127;-44
2022/12/10 09:33:38;;;;;;;16.90;10.23;;;0.40;99.90;;;;;;5111671;28;20035;-51
2022/12/10 09:36:06;;;;;;;21.77;11.95;;;0.40;99.90;;;;;;5091447;28;20065;-46
2022/12/10 09:38:34;;;;;;;21.88;10.75;;;0.40;99.90;;;;;;5108907;28;20035;-47
2022/12/10 09:41:01;;;;;;;20.02;12.18;;;0.40;99.90;;;;;;5091205;28;20515;-52
2022/12/10 09:43:35;;;;;;;20.17;11.95;;;0.40;99.90;;;;;;5089449;28;20431;-48
2022/12/10 09:46:22;;;;;;;20.83;11.60;;;0.40;99.90;;;;;;5110947;28;20118;-43
2022/12/10 09:49:01;;;;;;;19.40;11.25;;;0.40;99.90;;;;;;5070705;28;20024;-45
2022/12/10 09:51:33;;;;;;;26.25;13.10;;;0.30;99.90;;;;;;5073388;28;20036;-46
2022/12/10 09:54:00;;;;;;;18.70;9.98;;;0.30;99.90;;;;;;5111070;28;20034;-47
2022/12/10 09:56:33;;;;;;;20.73;11.25;;;0.40;99.90;;;;;;5091522;28;20077;-43
2022/12/10 09:59:03;;;;;;;20.25;11.70;;;0.40;99.90;;;;;;5110972;28;20039;-45
2022/12/10 10:01:30;;;;;;;20.77;9.93;;;0.40;99.90;;;;;;5091041;28;20051;-48
2022/12/10 10:03:56;;;;;;;22.55;12.18;;;0.40;99.90;;;;;;5111058;28;20040;-43
2022/12/10 10:06:24;;;;;;;24.38;12.68;;;0.40;99.90;;;;;;5085032;28;20127;-43
2022/12/10 10:08:53;;;;;;;21.33;11.73;;;0.40;99.90;;;;;;5110823;28;20055;-43
2022/12/10 10:11:23;;;;;;;21.20;11.02;;;0.30;99.90;;;;;;5089630;28;20028;-43
2022/12/10 10:13:57;;;;;;;23.33;12.95;;;0.40;99.90;;;;;;5110539;28;20197;-44
2022/12/10 10:16:32;;;;;;;21.30;12.35;;;0.30;99.90;;;;;;5090263;28;20068;-45
2022/12/10 10:19:05;;;;;;;25.95;14.02;;;0.30;99.90;;;;;;5110460;28;20110;-44
2022/12/10 10:21:41;;;;;;;28.83;15.32;;;0.40;99.90;;;;;;5074049;28;20078;-43
2022/12/10 10:24:14;;;;;;;27.25;14.55;;;0.40;99.90;;;;;;5110256;28;20474;-45
2022/12/10 10:26:39;;;;;;;29.17;14.75;;;0.30;99.90;;;;;;5076452;28;20483;-43
2022/12/10 10:29:09;;;;;;;22.67;13.43;;;0.40;99.90;;;;;;5110384;28;20065;-43
2022/12/10 10:31:38;;;;;;;26.08;13.82;;;0.40;99.90;;;;;;5091514;28;20028;-45
2022/12/10 10:34:11;;;;;;;20.17;12.23;;;0.40;99.90;;;;;;5110561;28;20035;-43
2022/12/10 10:36:38;;;;;;;21.55;12.07;;;0.40;99.90;;;;;;5071784;28;20012;-43
2022/12/10 10:39:26;;;;;;;23.75;13.68;;;0.50;99.90;;;;;;5089482;28;20063;-48
2022/12/10 10:41:54;;;;;;;25.08;13.90;;;0.50;99.90;;;;;;5079468;28;20070;-43
2022/12/10 10:44:22;;;;;;;20.42;11.77;;;0.50;99.90;;;;;;5110098;28;20494;-45
2022/12/10 10:46:50;;;;;;;22.05;11.85;;;0.60;99.90;;;;;;5093292;28;20027;-48
2022/12/10 10:49:24;;;;;;;21.48;11.05;;;0.70;99.90;;;;;;5109972;28;20028;-44
2022/12/10 10:51:51;;;;;;;19.70;10.73;;;0.70;99.90;;;;;;5093420;28;20030;-46
2022/12/10 10:54:38;;;;;;;20.73;12.18;;;0.80;99.90;;;;;;5109948;28;20016;-47
2022/12/10 10:57:05;;;;;;;;;;;0.80;99.90;;;;;;5095802;28;20054;-46
2022/12/10 10:59:36;;;;;;;22.85;11.60;;;0.80;99.90;;;;;;5109868;28;20376;-43
2022/12/10 11:02:40;;;;;;;23.35;12.75;;;0.80;99.90;;;;;;5094974;28;20570;-44
2022/12/10 11:05:20;;;;;;;19.75;11.68;;;0.80;99.90;;;;;;5076762;28;20132;-42
2022/12/10 11:07:46;;;;;;;22.50;12.93;;;0.80;99.90;;;;;;5107910;28;20053;-43
2022/12/10 11:10:21;;;;;;;21.73;12.32;;;0.70;99.90;;;;;;5089690;28;20492;-43
2022/12/10 11:13:06;;;;;;;25.52;14.18;;;0.70;99.90;;;;;;5093756;28;20530;-43
2022/12/10 11:15:40;;;;;;;23.25;13.18;;;0.70;99.90;;;;;;5068804;28;20031;-45
2022/12/10 11:18:35;;;;;;;24.55;14.40;;;0.70;99.90;;;;;;5088468;28;20024;-44
2022/12/10 11:21:02;;;;;;;22.05;12.50;;;0.70;99.90;;;;;;5089764;28;20396;-44
2022/12/10 11:23:30;;;;;;;25.48;13.43;;;0.70;99.90;;;;;;5106989;28;20040;-45
2022/12/10 11:26:13;;;;;;;21.42;12.05;;;0.80;99.90;;;;;;5089438;28;20028;-43
2022/12/10 11:28:55;;;;;;;23.17;12.73;;;0.80;99.90;;;;;;5079005;28;20032;-44
2022/12/10 11:31:58;;;;;;;22.83;11.48;;;0.90;99.90;;;;;;5069124;28;20028;-43
2022/12/10 11:34:37;;;;;;;29.48;15.65;;;1.00;99.90;;;;;;5087704;28;20028;-44
2022/12/10 11:37:12;;;;;;;23.02;12.52;;;1.00;99.90;;;;;;5083626;28;20036;-44
2022/12/10 11:40:11;;;;;;;24.45;13.95;;;1.00;99.90;;;;;;5108856;28;20084;-46
2022/12/10 11:42:57;;;;;;;21.20;11.40;;;1.10;99.90;;;;;;5074790;28;20043;-45
2022/12/10 11:45:42;;;;;;;22.90;12.15;;;1.10;99.90;;;;;;5071338;28;20047;-43
2022/12/10 11:48:20;;;;;;;22.15;12.60;;;1.00;99.90;;;;;;5109620;28;20016;-44
2022/12/10 11:50:49;;;;;;;21.33;12.70;;;0.90;99.90;;;;;;5078966;28;20024;-44
2022/12/10 11:53:42;;;;;;;26.55;13.30;;;0.80;99.90;;;;;;5109061;28;20032;-44
2022/12/10 11:56:25;;;;;;;24.90;14.10;;;0.70;99.90;;;;;;5084976;28;20019;-46
2022/12/10 11:59:01;;;;;;;27.17;13.73;;;0.70;99.90;;;;;;5068770;28;20100;-44
2022/12/10 12:01:58;;;;;;;25.95;13.60;;;0.60;99.90;;;;;;5090134;28;20042;-46
2022/12/10 12:04:45;;;;;;;25.05;13.00;;;0.60;99.90;;;;;;5088453;28;20079;-41
2022/12/10 12:07:33;;;;;;;26.15;14.40;;;0.60;99.90;;;;;;5087129;28;20081;-44
2022/12/10 12:10:36;;;;;;;26.05;13.85;;;0.50;99.90;;;;;;5068599;28;20032;-48
2022/12/10 12:13:13;;;;;;;23.67;13.20;;;0.40;99.90;;;;;;5066935;28;20025;-44
2022/12/10 12:15:59;;;;;;;26.27;14.23;;;0.50;99.90;;;;;;5074859;28;20031;-44
2022/12/10 12:18:47;;;;;;;27.25;15.30;;;0.50;99.90;;;;;;5107456;28;20426;-44
2022/12/10 12:21:15;;;;;;;23.48;13.27;;;0.50;99.90;;;;;;5084381;28;20035;-44
2022/12/10 12:23:57;;;;;;;23.35;12.20;;;0.50;99.90;;;;;;5086674;28;20464;-46
2022/12/10 12:26:41;;;;;;;22.77;12.70;;;0.50;99.90;;;;;;5108833;28;20532;-44
2022/12/10 12:29:13;;;;;;;21.63;11.75;;;0.60;99.90;;;;;;5110518;28;20080;-44
2022/12/10 12:31:46;;;;;;;21.70;11.18;;;0.70;99.90;;;;;;5091244;28;20043;-45
2022/12/10 12:34:20;;;;;;;21.48;11.63;;;0.70;99.90;;;;;;5112480;28;20037;-45
2022/12/10 12:36:46;;;;;;;20.15;11.07;;;0.70;99.90;;;;;;5073328;28;20028;-44
2022/12/10 12:39:34;;;;;;;20.55;12.27;;;0.70;99.90;;;;;;5112620;28;20020;-43
2022/12/10 12:42:14;;;;;;;20.63;10.93;;;0.70;99.90;;;;;;5078118;28;20036;-45
2022/12/10 12:45:08;;;;;;;18.23;10.13;;;0.70;99.90;;;;;;5092031;28;20035;-44
2022/12/10 12:47:58;;;;;;;21.52;11.18;;;0.80;99.90;;;;;;5086323;28;20384;-50
2022/12/10 12:50:36;;;;;;;21.25;11.18;;;0.80;99.90;;;;;;5071904;28;20021;-51
2022/12/10 12:53:04;;;;;;;21.67;11.85;;;0.80;99.90;;;;;;5082388;28;20036;-49
2022/12/10 12:55:42;;;;;;;23.23;11.18;;;0.70;99.90;;;;;;5111820;28;20109;-49
2022/12/10 12:58:22;;;;;;;21.80;11.38;;;0.70;99.90;;;;;;5082873;28;20028;-46